createdAt,value
2019-05-09T00:00:03.995Z,69.64
2019-05-09T00:01:03.843Z,70.25
2019-05-09T00:02:03.376Z,70.15
2019-05-09T00:03:03.504Z,70.68
2019-05-09T00:04:03.396Z,69.43
2019-05-09T00:05:03.547Z,70.38
2019-05-09T00:06:04.616Z,70.08
2019-05-09T00:07:03.609Z,70.86
2019-05-09T00:08:03.449Z,70.65
2019-05-09T00:09:03.773Z,70.25
2019-05-09T00:10:03.961Z,70.04
2019-05-09T00:11:03.719Z,70.25
2019-05-09T00:12:03.778Z,70.65
2019-05-09T00:13:03.315Z,70.59
2019-05-09T00:14:04.448Z,70.38
2019-05-09T00:15:04.388Z,70.59
2019-05-09T00:16:03.665Z,70.04
2019-05-09T00:17:03.701Z,70.55
2019-05-09T00:18:03.982Z,70.55
2019-05-09T00:19:03.328Z,70.28
2019-05-09T00:20:03.575Z,69.64
2019-05-09T00:21:04.169Z,69.98
2019-05-09T00:22:03.344Z,70.18
2019-05-09T00:23:03.275Z,70.45
2019-05-09T00:24:03.541Z,70.55
2019-05-09T00:25:03.241Z,70.59
2019-05-09T00:26:04.168Z,69.95
2019-05-09T00:27:03.826Z,70.76
2019-05-09T00:28:04.061Z,70.45
2019-05-09T00:29:03.758Z,70.15
2019-05-09T00:30:03.882Z,70.35
2019-05-09T00:31:03.412Z,69.64
2019-05-09T00:32:03.523Z,70.68
2019-05-09T00:33:03.786Z,70.35
2019-05-09T00:34:04.200Z,70.79
2019-05-09T00:35:03.918Z,71.09
2019-05-09T00:36:04.238Z,70.99
2019-05-09T00:37:03.131Z,70.89
2019-05-09T00:38:04.280Z,71.70
2019-05-09T00:39:04.109Z,72.31
2019-05-09T00:40:04.006Z,71.40
2019-05-09T00:41:03.857Z,71.91
2019-05-09T00:42:04.365Z,71.80
2019-05-09T00:43:03.908Z,71.91
2019-05-09T00:44:03.363Z,71.70
2019-05-09T00:45:04.165Z,71.91
2019-05-09T00:46:04.281Z,72.31
2019-05-09T00:47:04.238Z,72.11
2019-05-09T00:48:03.490Z,72.21
2019-05-09T00:49:02.170Z,71.91
2019-05-09T00:50:02.155Z,72.11
2019-05-09T00:51:03.485Z,72.41
2019-05-09T00:52:03.513Z,72.41
2019-05-09T00:53:03.141Z,72.41
2019-05-09T00:54:04.183Z,71.91
2019-05-09T00:55:03.946Z,72.21
2019-05-09T00:56:04.107Z,73.02
2019-05-09T00:57:03.226Z,72.62
2019-05-09T00:58:04.059Z,71.60
2019-05-09T00:59:04.227Z,72.41
2019-05-09T01:00:04.022Z,72.14
2019-05-09T01:01:04.300Z,72.41
2019-05-09T01:02:03.874Z,71.80
2019-05-09T01:03:03.607Z,72.21
2019-05-09T01:04:04.132Z,71.60
2019-05-09T01:05:04.039Z,72.21
2019-05-09T01:06:04.038Z,72.52
2019-05-09T01:07:03.468Z,71.43
2019-05-09T01:08:04.091Z,71.80
2019-05-09T01:09:03.645Z,71.73
2019-05-09T01:10:04.254Z,71.30
2019-05-09T01:11:11.338Z,71.12
2019-05-09T01:12:04.156Z,71.73
2019-05-09T01:13:03.578Z,71.64
2019-05-09T01:14:03.648Z,71.12
2019-05-09T01:15:03.379Z,71.12
2019-05-09T01:16:04.158Z,71.03
2019-05-09T01:17:04.050Z,70.72
2019-05-09T01:18:04.167Z,70.92
2019-05-09T01:19:03.582Z,71.12
2019-05-09T01:20:03.386Z,70.52
2019-05-09T01:21:04.001Z,71.23
2019-05-09T01:22:03.698Z,70.82
2019-05-09T01:23:03.458Z,70.82
2019-05-09T01:24:03.426Z,71.03
2019-05-09T01:25:03.987Z,71.03
2019-05-09T01:26:03.833Z,71.12
2019-05-09T01:27:03.629Z,71.23
2019-05-09T01:28:03.312Z,71.23
2019-05-09T01:29:04.042Z,71.94
2019-05-09T01:30:04.285Z,71.64
2019-05-09T01:31:03.801Z,71.53
2019-05-09T01:32:03.547Z,71.03
2019-05-09T01:33:03.634Z,71.12
2019-05-09T01:34:03.988Z,71.23
2019-05-09T01:35:03.710Z,71.23
2019-05-09T01:36:03.604Z,71.23
2019-05-09T01:37:03.456Z,71.84
2019-05-09T01:38:03.616Z,71.53
2019-05-09T01:39:03.273Z,71.33
2019-05-09T01:40:01.603Z,71.03
2019-05-09T01:41:03.813Z,71.23
2019-05-09T01:42:03.296Z,71.43
2019-05-09T01:43:01.568Z,72.04
2019-05-09T01:44:03.952Z,71.84
2019-05-09T01:45:03.594Z,71.64
2019-05-09T01:46:03.787Z,71.53
2019-05-09T01:47:03.679Z,70.92
2019-05-09T01:48:03.260Z,71.53
2019-05-09T01:49:03.187Z,71.53
2019-05-09T01:50:03.774Z,70.92
2019-05-09T01:51:03.218Z,71.33
2019-05-09T01:52:03.345Z,71.64
2019-05-09T01:53:03.848Z,71.23
2019-05-09T01:54:03.663Z,71.12
2019-05-09T01:55:03.588Z,71.12
2019-05-09T01:56:03.684Z,71.33
2019-05-09T01:57:03.324Z,71.23
2019-05-09T01:58:03.323Z,71.94
2019-05-09T01:59:03.051Z,71.43
2019-05-09T02:00:04.016Z,71.36
2019-05-09T02:01:03.577Z,71.26
2019-05-09T02:02:07.255Z,71.26
2019-05-09T02:03:03.266Z,71.77
2019-05-09T02:04:01.350Z,71.77
2019-05-09T02:05:01.340Z,71.26
2019-05-09T02:06:03.562Z,72.08
2019-05-09T02:07:03.800Z,71.97
2019-05-09T02:08:03.313Z,71.23
2019-05-09T02:09:03.423Z,71.64
2019-05-09T02:10:03.359Z,71.73
2019-05-09T02:11:03.571Z,71.53
2019-05-09T02:12:03.562Z,71.67
2019-05-09T02:13:03.119Z,71.97
2019-05-09T02:14:01.241Z,71.77
2019-05-09T02:15:03.943Z,72.17
2019-05-09T02:16:03.294Z,71.87
2019-05-09T02:17:03.189Z,71.97
2019-05-09T02:18:04.308Z,71.97
2019-05-09T02:19:01.180Z,71.87
2019-05-09T02:20:01.170Z,71.87
2019-05-09T02:21:01.151Z,72.28
2019-05-09T02:22:01.142Z,71.97
2019-05-09T02:23:03.516Z,72.17
2019-05-09T02:24:03.066Z,71.97
2019-05-09T02:25:01.109Z,71.87
2019-05-09T02:26:01.108Z,71.87
2019-05-09T02:27:01.086Z,72.08
2019-05-09T02:28:03.361Z,72.17
2019-05-09T02:29:03.188Z,72.69
2019-05-09T02:30:01.057Z,72.28
2019-05-09T02:31:04.745Z,72.28
2019-05-09T02:32:04.247Z,72.69
2019-05-09T02:33:01.021Z,72.38
2019-05-09T02:34:01.013Z,72.48
2019-05-09T02:35:04.622Z,72.89
2019-05-09T02:36:02.153Z,72.69
2019-05-09T02:37:00.981Z,72.48
2019-05-09T02:38:00.967Z,72.89
2019-05-09T02:39:00.958Z,72.99
2019-05-09T02:40:00.959Z,72.89
2019-05-09T02:41:00.944Z,73.09
2019-05-09T02:42:09.528Z,72.58
2019-05-09T02:43:01.909Z,72.82
2019-05-09T02:44:00.905Z,73.19
2019-05-09T02:45:00.907Z,73.70
2019-05-09T02:46:00.879Z,72.89
2019-05-09T02:47:00.874Z,72.78
2019-05-09T02:48:00.855Z,72.58
2019-05-09T02:49:00.848Z,72.89
2019-05-09T02:50:00.865Z,72.89
2019-05-09T02:51:00.831Z,73.30
2019-05-09T02:52:00.816Z,73.09
2019-05-09T02:53:00.803Z,72.99
2019-05-09T02:54:00.789Z,72.69
2019-05-09T02:55:00.793Z,73.09
2019-05-09T02:56:00.767Z,73.13
2019-05-09T02:57:00.760Z,73.02
2019-05-09T02:58:00.749Z,73.50
2019-05-09T02:59:00.747Z,73.63
2019-05-09T03:00:00.747Z,73.19
2019-05-09T03:01:00.713Z,73.23
2019-05-09T03:02:00.717Z,74.04
2019-05-09T03:03:00.693Z,73.43
2019-05-09T03:04:00.695Z,73.63
2019-05-09T03:05:00.687Z,74.01
2019-05-09T03:06:00.663Z,73.39
2019-05-09T03:07:00.647Z,74.04
2019-05-09T03:08:00.638Z,74.45
2019-05-09T03:09:00.641Z,74.24
2019-05-09T03:10:00.628Z,73.74
2019-05-09T03:11:00.612Z,73.13
2019-05-09T03:12:20.520Z,73.33
2019-05-09T03:13:01.597Z,74.35
2019-05-09T03:14:00.570Z,73.84
2019-05-09T03:15:00.574Z,73.02
2019-05-09T03:16:00.566Z,74.15
2019-05-09T03:17:00.537Z,73.63
2019-05-09T03:18:00.525Z,73.30
2019-05-09T03:19:00.515Z,73.50
2019-05-09T03:20:00.549Z,73.23
2019-05-09T03:21:00.496Z,73.13
2019-05-09T03:22:00.489Z,72.89
2019-05-09T03:23:00.471Z,73.33
2019-05-09T03:24:00.462Z,73.39
2019-05-09T03:25:00.449Z,74.15
2019-05-09T03:26:00.462Z,73.63
2019-05-09T03:27:00.446Z,74.24
2019-05-09T03:28:00.415Z,74.41
2019-05-09T03:29:00.410Z,74.15
2019-05-09T03:30:00.455Z,74.76
2019-05-09T03:31:00.395Z,74.15
2019-05-09T03:32:00.460Z,74.15
2019-05-09T03:33:00.377Z,73.50
2019-05-09T03:34:00.360Z,73.39
2019-05-09T03:35:00.339Z,74.15
2019-05-09T03:36:00.347Z,74.45
2019-05-09T03:37:00.316Z,74.24
2019-05-09T03:38:00.305Z,73.84
2019-05-09T03:39:00.300Z,73.74
2019-05-09T03:40:00.288Z,73.54
2019-05-09T03:41:00.287Z,74.35
2019-05-09T03:42:00.265Z,74.35
2019-05-09T03:43:00.252Z,74.35
2019-05-09T03:44:00.240Z,74.24
2019-05-09T03:45:00.228Z,74.45
2019-05-09T03:46:00.232Z,74.35
2019-05-09T03:47:00.209Z,74.04
2019-05-09T03:48:00.195Z,75.16
2019-05-09T03:49:00.188Z,74.65
2019-05-09T03:50:00.176Z,74.35
2019-05-09T03:51:00.175Z,74.24
2019-05-09T03:52:00.163Z,75.06
2019-05-09T03:53:00.141Z,75.26
2019-05-09T03:54:00.132Z,75.16
2019-05-09T03:55:00.122Z,75.67
2019-05-09T03:56:00.123Z,74.28
2019-05-09T03:57:00.100Z,74.38
2019-05-09T03:58:00.091Z,73.54
2019-05-09T03:59:00.081Z,74.55
2019-05-09T04:00:00.068Z,74.04
2019-05-09T04:01:00.074Z,74.58
2019-05-09T04:02:00.067Z,74.24
2019-05-09T04:03:00.035Z,74.15
2019-05-09T04:04:00.026Z,74.04
2019-05-09T04:05:00.012Z,73.74
2019-05-09T04:06:02.975Z,74.15
2019-05-09T04:06:59.994Z,73.23
2019-05-09T04:07:59.988Z,74.76
2019-05-09T04:09:00.002Z,74.55
2019-05-09T04:09:59.956Z,75.06
2019-05-09T04:10:59.979Z,74.45
2019-05-09T04:12:00.322Z,73.33
2019-05-09T04:12:59.927Z,73.74
2019-05-09T04:13:59.917Z,74.35
2019-05-09T04:14:59.902Z,74.65
2019-05-09T04:15:59.896Z,74.45
2019-05-09T04:16:59.894Z,74.04
2019-05-09T04:17:59.871Z,74.15
2019-05-09T04:18:59.865Z,74.01
2019-05-09T04:19:59.856Z,74.24
2019-05-09T04:20:59.839Z,74.04
2019-05-09T04:22:02.215Z,74.45
2019-05-09T04:22:59.816Z,75.16
2019-05-09T04:23:59.813Z,74.15
2019-05-09T04:24:59.797Z,74.24
2019-05-09T04:25:59.782Z,73.33
2019-05-09T04:26:59.782Z,73.43
2019-05-09T04:27:59.759Z,73.74
2019-05-09T04:28:59.751Z,74.04
2019-05-09T04:29:59.738Z,73.74
2019-05-09T04:30:59.736Z,74.35
2019-05-09T04:31:59.728Z,74.15
2019-05-09T04:32:59.708Z,73.70
2019-05-09T04:33:59.692Z,73.09
2019-05-09T04:34:59.688Z,73.43
2019-05-09T04:35:59.687Z,73.80
2019-05-09T04:36:59.678Z,73.70
2019-05-09T04:37:59.648Z,72.99
2019-05-09T04:38:59.636Z,72.99
2019-05-09T04:40:03.271Z,73.50
2019-05-09T04:40:59.617Z,73.39
2019-05-09T04:42:05.173Z,73.50
2019-05-09T04:43:10.782Z,73.60
2019-05-09T04:44:00.581Z,72.89
2019-05-09T04:45:03.531Z,73.70
2019-05-09T04:45:59.561Z,74.21
2019-05-09T04:47:03.350Z,73.39
2019-05-09T04:47:59.544Z,72.78
2019-05-09T04:49:02.565Z,73.70
2019-05-09T04:49:59.519Z,72.99
2019-05-09T04:50:59.630Z,73.09
2019-05-09T04:51:59.506Z,72.89
2019-05-09T04:52:59.493Z,73.39
2019-05-09T04:53:59.487Z,72.99
2019-05-09T04:54:59.461Z,73.80
2019-05-09T04:55:59.451Z,72.58
2019-05-09T04:56:59.453Z,72.28
2019-05-09T04:58:00.158Z,73.09
2019-05-09T04:58:59.429Z,72.89
2019-05-09T04:59:59.413Z,73.09
2019-05-09T05:00:59.399Z,72.58
2019-05-09T05:01:59.425Z,72.96
2019-05-09T05:02:59.376Z,72.65
2019-05-09T05:03:59.363Z,72.99
2019-05-09T05:04:59.356Z,73.09
2019-05-09T05:05:59.344Z,72.08
2019-05-09T05:06:59.341Z,72.69
2019-05-09T05:07:59.333Z,72.58
2019-05-09T05:08:59.309Z,72.89
2019-05-09T05:09:59.301Z,72.99
2019-05-09T05:10:59.290Z,73.19
2019-05-09T05:11:59.276Z,72.99
2019-05-09T05:12:59.278Z,72.69
2019-05-09T05:13:59.259Z,72.78
2019-05-09T05:14:59.243Z,73.09
2019-05-09T05:15:59.235Z,72.99
2019-05-09T05:17:07.392Z,73.19
2019-05-09T05:18:00.222Z,72.78
2019-05-09T05:18:59.201Z,72.08
2019-05-09T05:19:59.191Z,73.09
2019-05-09T05:20:59.892Z,73.39
2019-05-09T05:21:59.166Z,72.99
2019-05-09T05:22:59.166Z,72.78
2019-05-09T05:23:59.146Z,72.58
2019-05-09T05:24:59.880Z,72.99
2019-05-09T05:25:59.124Z,72.89
2019-05-09T05:26:59.110Z,72.45
2019-05-09T05:27:59.112Z,71.97
2019-05-09T05:28:59.093Z,72.45
2019-05-09T05:29:59.077Z,72.55
2019-05-09T05:30:59.096Z,72.65
2019-05-09T05:31:59.056Z,72.65
2019-05-09T05:32:59.075Z,72.85
2019-05-09T05:33:59.037Z,72.34
2019-05-09T05:34:59.031Z,72.25
2019-05-09T05:35:59.012Z,72.55
2019-05-09T05:36:59.004Z,72.14
2019-05-09T05:37:58.991Z,73.06
2019-05-09T05:38:58.987Z,72.55
2019-05-09T05:39:58.993Z,72.85
2019-05-09T05:40:58.960Z,72.85
2019-05-09T05:41:58.946Z,73.06
2019-05-09T05:42:58.954Z,72.55
2019-05-09T05:43:58.940Z,72.48
2019-05-09T05:44:58.911Z,72.55
2019-05-09T05:45:58.903Z,72.28
2019-05-09T05:46:58.894Z,72.34
2019-05-09T05:47:58.879Z,72.34
2019-05-09T05:48:58.880Z,71.94
2019-05-09T05:49:58.858Z,72.04
2019-05-09T05:50:58.850Z,72.45
2019-05-09T05:51:58.842Z,72.25
2019-05-09T05:52:58.826Z,72.45
2019-05-09T05:54:01.337Z,72.14
2019-05-09T05:54:58.803Z,71.53
2019-05-09T05:55:58.797Z,71.73
2019-05-09T05:56:58.789Z,71.84
2019-05-09T05:57:58.768Z,71.64
2019-05-09T05:58:59.058Z,71.23
2019-05-09T05:59:58.746Z,71.84
2019-05-09T06:00:59.083Z,72.25
2019-05-09T06:01:58.738Z,72.14
2019-05-09T06:02:58.976Z,71.73
2019-05-09T06:03:58.824Z,71.64
2019-05-09T06:04:58.692Z,71.64
2019-05-09T06:05:58.732Z,72.04
2019-05-09T06:06:58.977Z,72.14
2019-05-09T06:07:58.659Z,72.04
2019-05-09T06:08:58.660Z,71.23
2019-05-09T06:09:58.638Z,71.33
2019-05-09T06:10:58.629Z,71.23
2019-05-09T06:11:58.614Z,71.73
2019-05-09T06:12:58.607Z,71.84
2019-05-09T06:14:06.518Z,71.23
2019-05-09T06:14:59.585Z,71.64
2019-05-09T06:15:58.811Z,71.03
2019-05-09T06:16:58.981Z,71.33
2019-05-09T06:17:58.549Z,71.30
2019-05-09T06:18:58.827Z,70.92
2019-05-09T06:19:59.010Z,71.12
2019-05-09T06:20:58.586Z,70.92
2019-05-09T06:21:58.510Z,71.30
2019-05-09T06:22:58.492Z,71.33
2019-05-09T06:23:58.926Z,71.43
2019-05-09T06:24:58.475Z,70.79
2019-05-09T06:25:58.937Z,70.89
2019-05-09T06:26:58.702Z,70.31
2019-05-09T06:27:58.681Z,70.68
2019-05-09T06:28:58.441Z,70.59
2019-05-09T06:29:58.441Z,70.68
2019-05-09T06:30:58.660Z,70.38
2019-05-09T06:31:58.660Z,70.18
2019-05-09T06:32:58.383Z,70.99
2019-05-09T06:33:58.404Z,70.89
2019-05-09T06:34:58.359Z,70.48
2019-05-09T06:35:59.042Z,70.86
2019-05-09T06:36:58.754Z,70.38
2019-05-09T06:37:58.924Z,69.34
2019-05-09T06:38:58.957Z,69.34
2019-05-09T06:39:58.490Z,69.95
2019-05-09T06:40:58.441Z,69.57
2019-05-09T06:41:58.283Z,69.87
2019-05-09T06:42:59.537Z,68.83
2019-05-09T06:44:13.149Z,69.54
2019-05-09T06:44:59.259Z,69.03
2019-05-09T06:45:58.240Z,69.43
2019-05-09T06:46:58.699Z,69.03
2019-05-09T06:48:00.337Z,69.03
2019-05-09T06:49:20.561Z,69.54
2019-05-09T06:49:59.206Z,68.73
2019-05-09T06:50:58.199Z,68.73
2019-05-09T06:51:58.216Z,69.34
2019-05-09T06:53:08.131Z,69.13
2019-05-09T06:53:58.554Z,69.34
2019-05-09T06:54:58.408Z,69.13
2019-05-09T06:55:58.147Z,69.03
2019-05-09T06:56:58.599Z,68.83
2019-05-09T06:57:58.528Z,69.54
2019-05-09T06:58:58.382Z,69.34
2019-05-09T06:59:58.214Z,69.03
2019-05-09T07:00:58.476Z,69.03
2019-05-09T07:01:58.074Z,68.32
2019-05-09T07:03:00.713Z,68.83
2019-05-09T07:03:58.048Z,68.83
2019-05-09T07:04:58.294Z,68.62
2019-05-09T07:05:58.043Z,67.91
2019-05-09T07:06:58.850Z,67.91
2019-05-09T07:07:58.006Z,67.91
2019-05-09T07:08:58.605Z,68.12
2019-05-09T07:09:58.727Z,68.93
2019-05-09T07:10:58.517Z,68.32
2019-05-09T07:11:58.579Z,68.01
2019-05-09T07:12:58.555Z,68.62
2019-05-09T07:13:58.034Z,68.22
2019-05-09T07:14:58.327Z,68.01
2019-05-09T07:15:58.589Z,68.83
2019-05-09T07:16:58.466Z,68.52
2019-05-09T07:17:57.951Z,68.73
2019-05-09T07:18:58.080Z,68.93
2019-05-09T07:19:58.940Z,68.42
2019-05-09T07:20:57.872Z,68.01
2019-05-09T07:21:58.083Z,68.59
2019-05-09T07:22:58.444Z,67.38
2019-05-09T07:23:58.391Z,67.68
2019-05-09T07:25:06.028Z,68.19
2019-05-09T07:25:58.820Z,68.22
2019-05-09T07:26:58.350Z,68.52
2019-05-09T07:27:58.691Z,67.71
2019-05-09T07:28:59.523Z,67.71
2019-05-09T07:29:58.232Z,68.32
2019-05-09T07:30:57.771Z,67.81
2019-05-09T07:31:57.801Z,67.30
2019-05-09T07:32:58.104Z,67.81
2019-05-09T07:33:58.728Z,68.42
2019-05-09T07:34:57.962Z,68.73
2019-05-09T07:35:58.199Z,68.22
2019-05-09T07:36:58.180Z,68.42
2019-05-09T07:37:57.952Z,68.12
2019-05-09T07:38:58.350Z,67.50
2019-05-09T07:39:57.838Z,68.59
2019-05-09T07:40:58.100Z,67.20
2019-05-09T07:41:58.357Z,67.30
2019-05-09T07:42:58.389Z,67.20
2019-05-09T07:43:58.284Z,67.27
2019-05-09T07:44:59.095Z,67.61
2019-05-09T07:45:58.057Z,67.78
2019-05-09T07:46:58.151Z,67.50
2019-05-09T07:47:58.323Z,67.10
2019-05-09T07:48:57.977Z,67.10
2019-05-09T07:49:58.552Z,67.61
2019-05-09T07:50:59.761Z,68.42
2019-05-09T07:51:59.115Z,67.50
2019-05-09T07:52:58.505Z,67.41
2019-05-09T07:53:58.939Z,68.12
2019-05-09T07:54:58.115Z,68.12
2019-05-09T07:55:58.197Z,68.19
2019-05-09T07:56:58.107Z,68.22
2019-05-09T07:57:59.005Z,67.88
2019-05-09T07:58:58.460Z,68.01
2019-05-09T07:59:58.449Z,68.12
2019-05-09T08:01:01.266Z,68.42
2019-05-09T08:01:58.333Z,68.62
2019-05-09T08:02:58.069Z,67.91
2019-05-09T08:03:58.486Z,67.91
2019-05-09T08:04:58.143Z,68.70
2019-05-09T08:05:58.034Z,68.22
2019-05-09T08:06:57.848Z,67.68
2019-05-09T08:07:58.560Z,67.07
2019-05-09T08:08:58.310Z,67.38
2019-05-09T08:09:57.997Z,67.27
2019-05-09T08:10:58.437Z,67.27
2019-05-09T08:11:58.800Z,67.27
2019-05-09T08:12:58.557Z,66.66
2019-05-09T08:13:57.622Z,67.47
2019-05-09T08:15:08.519Z,67.47
2019-05-09T08:15:58.660Z,67.47
2019-05-09T08:16:58.065Z,66.66
2019-05-09T08:17:59.107Z,66.77
2019-05-09T08:18:57.955Z,66.77
2019-05-09T08:19:58.306Z,67.58
2019-05-09T08:20:57.938Z,67.58
2019-05-09T08:21:57.692Z,66.74
2019-05-09T08:23:01.263Z,66.83
2019-05-09T08:23:57.960Z,66.53
2019-05-09T08:24:57.712Z,66.33
2019-05-09T08:25:57.881Z,66.53
2019-05-09T08:26:58.099Z,66.94
2019-05-09T08:27:58.772Z,66.50
2019-05-09T08:28:58.476Z,66.40
2019-05-09T08:29:58.384Z,66.09
2019-05-09T08:30:58.479Z,65.79
2019-05-09T08:31:58.233Z,65.45
2019-05-09T08:32:59.661Z,65.66
2019-05-09T08:33:59.430Z,65.56
2019-05-09T08:34:57.706Z,66.47
2019-05-09T08:35:58.522Z,66.06
2019-05-09T08:36:58.059Z,66.40
2019-05-09T08:37:58.344Z,66.16
2019-05-09T08:38:58.600Z,66.27
2019-05-09T08:39:57.787Z,65.96
2019-05-09T08:40:58.894Z,66.09
2019-05-09T08:41:59.260Z,65.99
2019-05-09T08:42:58.781Z,66.09
2019-05-09T08:43:57.709Z,65.86
2019-05-09T08:44:57.768Z,65.59
2019-05-09T08:45:57.589Z,65.56
2019-05-09T08:46:57.476Z,64.88
2019-05-09T08:47:57.772Z,65.76
2019-05-09T08:48:57.546Z,65.59
2019-05-09T08:49:58.666Z,65.59
2019-05-09T08:50:58.300Z,65.99
2019-05-09T08:52:10.408Z,65.99
2019-05-09T08:52:57.882Z,66.30
2019-05-09T08:53:57.831Z,65.76
2019-05-09T08:54:57.832Z,65.86
2019-05-09T08:55:58.040Z,66.16
2019-05-09T08:56:58.171Z,66.06
2019-05-09T08:57:58.584Z,65.45
2019-05-09T08:59:01.641Z,64.44
2019-05-09T08:59:58.996Z,64.85
2019-05-09T09:01:03.618Z,64.64
2019-05-09T09:02:12.398Z,64.54
2019-05-09T09:02:57.746Z,64.44
2019-05-09T09:03:57.574Z,64.64
2019-05-09T09:04:58.304Z,64.41
2019-05-09T09:05:57.766Z,64.41
2019-05-09T09:06:57.693Z,64.51
2019-05-09T09:07:57.857Z,64.61
2019-05-09T09:08:57.546Z,64.72
2019-05-09T09:09:57.771Z,64.21
2019-05-09T09:10:57.774Z,63.90
2019-05-09T09:11:58.403Z,63.90
2019-05-09T09:12:58.030Z,63.90
2019-05-09T09:13:57.705Z,63.90
2019-05-09T09:14:58.661Z,64.21
2019-05-09T09:16:11.662Z,63.90
2019-05-09T09:16:57.782Z,64.11
2019-05-09T09:17:57.935Z,63.70
2019-05-09T09:18:58.493Z,64.21
2019-05-09T09:19:58.213Z,63.60
2019-05-09T09:20:58.707Z,63.87
2019-05-09T09:22:00.252Z,63.27
2019-05-09T09:22:58.275Z,63.24
2019-05-09T09:23:58.226Z,62.81
2019-05-09T09:24:58.435Z,61.99
2019-05-09T09:25:58.249Z,62.10
2019-05-09T09:26:57.417Z,62.30
2019-05-09T09:27:58.132Z,61.79
2019-05-09T09:28:57.752Z,61.99
2019-05-09T09:29:58.710Z,61.90
2019-05-09T09:30:59.096Z,61.46
2019-05-09T09:31:57.647Z,60.85
2019-05-09T09:32:58.567Z,60.42
2019-05-09T09:33:58.509Z,60.22
2019-05-09T09:34:58.558Z,59.81
2019-05-09T09:35:57.970Z,58.87
2019-05-09T09:37:01.626Z,59.08
2019-05-09T09:37:58.165Z,58.95
2019-05-09T09:38:58.434Z,58.65
2019-05-09T09:39:58.239Z,58.54
2019-05-09T09:40:58.076Z,58.87
2019-05-09T09:41:58.487Z,59.05
2019-05-09T09:42:58.064Z,59.08
2019-05-09T09:43:58.282Z,58.34
2019-05-09T09:44:58.650Z,58.78
2019-05-09T09:46:09.995Z,58.95
2019-05-09T09:46:58.157Z,57.23
2019-05-09T09:47:58.872Z,58.37
2019-05-09T09:48:58.678Z,58.34
2019-05-09T09:49:59.544Z,57.14
2019-05-09T09:50:57.982Z,57.23
2019-05-09T09:51:58.115Z,56.83
2019-05-09T09:52:58.741Z,56.93
2019-05-09T09:53:58.292Z,56.76
2019-05-09T09:54:58.248Z,55.65
2019-05-09T09:55:58.278Z,56.15
2019-05-09T09:56:58.295Z,56.56
2019-05-09T09:57:57.869Z,56.78
2019-05-09T09:58:57.684Z,57.18
2019-05-09T09:59:58.237Z,57.18
2019-05-09T10:00:58.224Z,57.89
2019-05-09T10:01:58.190Z,58.20
2019-05-09T10:02:58.565Z,58.12
2019-05-09T10:03:58.107Z,58.12
2019-05-09T10:04:57.053Z,57.62
2019-05-09T10:05:57.721Z,57.31
2019-05-09T10:06:58.339Z,57.01
2019-05-09T10:07:58.172Z,57.11
2019-05-09T10:08:58.002Z,57.92
2019-05-09T10:09:58.175Z,57.42
2019-05-09T10:10:58.720Z,57.52
2019-05-09T10:11:58.145Z,57.72
2019-05-09T10:12:55.975Z,57.85
2019-05-09T10:13:58.298Z,58.12
2019-05-09T10:14:57.771Z,58.12
2019-05-09T10:15:58.465Z,57.52
2019-05-09T10:16:58.081Z,57.31
2019-05-09T10:17:58.119Z,57.72
2019-05-09T10:18:57.933Z,58.25
2019-05-09T10:19:55.941Z,57.82
2019-05-09T10:20:58.399Z,58.23
2019-05-09T10:21:57.809Z,57.31
2019-05-09T10:23:02.997Z,58.02
2019-05-09T10:23:57.542Z,57.52
2019-05-09T10:24:58.393Z,57.11
2019-05-09T10:25:57.933Z,57.11
2019-05-09T10:26:55.832Z,57.31
2019-05-09T10:27:55.804Z,58.33
2019-05-09T10:28:55.816Z,58.33
2019-05-09T10:29:57.442Z,58.73
2019-05-09T10:30:57.730Z,57.21
2019-05-09T10:31:57.858Z,57.72
2019-05-09T10:32:58.237Z,57.82
2019-05-09T10:33:57.847Z,57.59
2019-05-09T10:34:57.888Z,56.98
2019-05-09T10:36:03.200Z,57.18
2019-05-09T10:36:58.305Z,57.29
2019-05-09T10:37:58.602Z,57.39
2019-05-09T10:38:58.197Z,56.98
2019-05-09T10:39:57.856Z,57.18
2019-05-09T10:40:59.987Z,56.96
2019-05-09T10:41:57.666Z,57.16
2019-05-09T10:42:55.678Z,57.76
2019-05-09T10:43:57.761Z,56.52
2019-05-09T10:44:55.638Z,55.21
2019-05-09T10:45:57.879Z,56.52
2019-05-09T10:46:58.900Z,56.10
2019-05-09T10:47:57.667Z,55.19
2019-05-09T10:48:58.417Z,55.21
2019-05-09T10:49:58.021Z,55.52
2019-05-09T10:51:03.495Z,55.29
2019-05-09T10:51:58.038Z,55.19
2019-05-09T10:52:58.172Z,56.20
2019-05-09T10:53:55.546Z,55.59
2019-05-09T10:54:57.868Z,55.19
2019-05-09T10:55:55.493Z,54.79
2019-05-09T10:56:57.901Z,54.18
2019-05-09T10:57:55.493Z,54.99
2019-05-09T10:58:55.463Z,54.79
2019-05-09T10:59:57.830Z,54.89
2019-05-09T11:00:55.443Z,54.48
2019-05-09T11:01:57.683Z,54.48
2019-05-09T11:02:55.420Z,53.17
2019-05-09T11:03:55.413Z,54.28
2019-05-09T11:04:57.675Z,54.28
2019-05-09T11:05:55.380Z,54.31
2019-05-09T11:06:55.372Z,54.21
2019-05-09T11:07:55.371Z,55.01
2019-05-09T11:08:55.358Z,54.71
2019-05-09T11:09:55.352Z,55.41
2019-05-09T11:10:57.438Z,55.32
2019-05-09T11:11:58.631Z,56.43
2019-05-09T11:12:58.422Z,56.85
2019-05-09T11:13:55.293Z,57.67
2019-05-09T11:14:55.293Z,58.09
2019-05-09T11:15:55.432Z,58.00
2019-05-09T11:17:07.759Z,57.79
2019-05-09T11:17:57.668Z,58.33
2019-05-09T11:18:55.253Z,59.03
2019-05-09T11:19:55.235Z,58.96
2019-05-09T11:20:57.943Z,60.14
2019-05-09T11:21:55.202Z,61.08
2019-05-09T11:22:55.193Z,62.10
2019-05-09T11:23:55.183Z,60.88
2019-05-09T11:24:57.739Z,61.79
2019-05-09T11:25:55.166Z,61.59
2019-05-09T11:26:55.152Z,61.29
2019-05-09T11:28:10.060Z,61.59
2019-05-09T11:28:58.486Z,60.98
2019-05-09T11:29:57.574Z,61.39
2019-05-09T11:30:58.321Z,60.68
2019-05-09T11:31:55.122Z,61.49
2019-05-09T11:32:55.082Z,61.69
2019-05-09T11:33:57.695Z,62.40
2019-05-09T11:34:57.402Z,62.30
2019-05-09T11:35:55.069Z,61.46
2019-05-09T11:36:55.044Z,61.59
2019-05-09T11:37:55.028Z,61.29
2019-05-09T11:38:55.056Z,60.68
2019-05-09T11:39:55.041Z,60.58
2019-05-09T11:40:55.006Z,61.56
2019-05-09T11:41:54.986Z,61.16
2019-05-09T11:42:54.973Z,61.23
2019-05-09T11:43:54.968Z,58.91
2019-05-09T11:44:54.957Z,58.91
2019-05-09T11:45:55.294Z,58.09
2019-05-09T11:46:54.936Z,57.59
2019-05-09T11:47:54.923Z,57.56
2019-05-09T11:48:54.913Z,56.78
2019-05-09T11:49:57.803Z,55.44
2019-05-09T11:50:54.912Z,55.24
2019-05-09T11:51:57.532Z,55.32
2019-05-09T11:52:54.869Z,56.30
2019-05-09T11:53:54.864Z,54.79
2019-05-09T11:54:54.848Z,55.59
2019-05-09T11:55:57.598Z,55.19
2019-05-09T11:56:57.557Z,54.86
2019-05-09T11:57:54.876Z,54.03
2019-05-09T11:58:54.804Z,53.92
2019-05-09T11:59:54.790Z,53.72
2019-05-09T12:00:55.549Z,53.90
2019-05-09T12:01:54.768Z,53.90
2019-05-09T12:02:54.755Z,53.70
2019-05-09T12:03:54.754Z,54.18
2019-05-09T12:04:54.742Z,52.77
2019-05-09T12:05:54.739Z,53.34
2019-05-09T12:06:54.714Z,52.84
2019-05-09T12:07:54.702Z,52.54
2019-05-09T12:08:54.692Z,52.31
2019-05-09T12:09:54.685Z,52.62
2019-05-09T12:10:54.744Z,52.11
2019-05-09T12:11:54.667Z,51.89
2019-05-09T12:12:54.653Z,51.99
2019-05-09T12:13:54.635Z,51.18
2019-05-09T12:14:54.722Z,51.36
2019-05-09T12:15:54.628Z,50.76
2019-05-09T12:16:54.682Z,51.44
2019-05-09T12:17:59.223Z,50.13
2019-05-09T12:18:55.601Z,50.93
2019-05-09T12:20:09.102Z,51.54
2019-05-09T12:20:57.504Z,51.56
2019-05-09T12:21:54.606Z,51.16
2019-05-09T12:22:54.536Z,51.86
2019-05-09T12:23:57.901Z,50.46
2019-05-09T12:24:54.558Z,52.17
2019-05-09T12:25:54.567Z,51.54
2019-05-09T12:26:54.621Z,51.06
2019-05-09T12:27:54.533Z,50.13
2019-05-09T12:28:54.502Z,50.35
2019-05-09T12:29:54.464Z,51.76
2019-05-09T12:30:54.516Z,50.35
2019-05-09T12:31:54.525Z,50.98
2019-05-09T12:32:54.442Z,51.99
2019-05-09T12:33:54.429Z,51.91
2019-05-09T12:34:54.422Z,52.29
2019-05-09T12:35:54.411Z,52.09
2019-05-09T12:36:54.413Z,52.22
2019-05-09T12:37:54.373Z,52.31
2019-05-09T12:38:54.423Z,52.01
2019-05-09T12:39:54.355Z,52.62
2019-05-09T12:40:54.396Z,52.31
2019-05-09T12:41:54.332Z,52.42
2019-05-09T12:42:54.336Z,52.31
2019-05-09T12:43:54.314Z,52.72
2019-05-09T12:44:54.307Z,52.11
2019-05-09T12:45:54.287Z,52.31
2019-05-09T12:46:54.365Z,52.51
2019-05-09T12:48:07.454Z,52.14
2019-05-09T12:48:58.761Z,52.64
2019-05-09T12:49:54.275Z,52.64
2019-05-09T12:50:54.344Z,52.84
2019-05-09T12:51:54.233Z,53.05